M I D A S
Marine Information and Data Acquisition System
Tripno 989 of the Zeeleeuw from 2005-11-28 07:35:38 to 2005-11-28 14:38:53
Back to CruiseResearch ActivitiesStationsMapUnderway DataData graphs

EquipmentUnitsComment
TimeDGPSUTC
LatitudeDGPSDM.mWGS84
LongitudeDGPSDM.mWGS84
TemperatureSBE03/SBE38deg celciusITS90
ConductivitySBE21S/mITS90
SalinitySBE21 Practical Salinity Units
ChlorophylAChelsea fluorimeterg/lCalibrated in Aceton
Missing or incorrect values are displayed as -999
Sea surface data collected by the RV Zeeleeuw from 2005-11-28 07:21:17 to 2005-11-28 14:53:13
Time Latitude Longitude Temperature Conductivity Salinity ChlorophylA
2005-11-28 07:22:22 51°13.581 2°56.136 -999 4.455812 32.276774 -1.253181
2005-11-28 07:23:22 51°13.581 2°56.136 -999 4.455397 32.276383 -1.253181
2005-11-28 07:24:22 51°13.582 2°56.137 -999 4.45519 32.276485 -1.253181
2005-11-28 07:25:22 51°13.582 2°56.136 -999 4.454878 32.275746 -1.253181
2005-11-28 07:26:22 51°13.582 2°56.136 -999 4.454567 32.275007 -1.219471
2005-11-28 07:27:22 51°13.581 2°56.137 -999 4.454256 32.274268 -1.219471
2005-11-28 07:28:22 51°13.581 2°56.138 -999 4.454048 32.274965 -1.219471
2005-11-28 07:29:22 51°13.58 2°56.137 -999 4.453737 32.274226 -1.253181
2005-11-28 07:30:23 51°13.58 2°56.136 -999 4.453426 32.273487 -1.219471
2005-11-28 07:31:22 51°13.58 2°56.136 -999 4.453115 32.272748 -1.253181
2005-11-28 07:32:22 51°13.581 2°56.137 -999 4.452907 32.27285 -1.219471
2005-11-28 07:33:22 51°13.581 2°56.137 -999 4.4527 32.273547 -1.253181
2005-11-28 07:34:22 51°13.58 2°56.136 -999 4.452388 32.272213 -1.219471
2005-11-28 07:35:22 51°13.58 2°56.136 -999 4.452077 32.271474 -1.253181
2005-11-28 07:36:22 51°13.58 2°56.137 -999 4.45187 32.271576 -1.253181
2005-11-28 07:37:22 51°13.584 2°56.116 -999 4.451662 32.271678 -1.219471
2005-11-28 07:38:23 51°13.613 2°56.02 -999 4.451143 32.268663 -1.253181
2005-11-28 07:39:23 51°13.656 2°55.907 -999 4.45104 32.270201 -1.219471
2005-11-28 07:40:22 51°13.688 2°55.794 -999 4.450936 32.271144 -1.219471
2005-11-28 07:41:23 51°13.696 2°55.744 -999 4.450728 32.270651 -1.253181
2005-11-28 07:42:22 51°13.743 2°55.728 -999 4.450625 32.274569 -1.253181
2005-11-28 07:43:22 51°13.855 2°55.617 -999 4.450417 32.270507 -1.253181
2005-11-28 07:44:22 51°14.004 2°55.51 -999 4.45021 32.271799 -1.219471
2005-11-28 07:45:23 51°14.155 2°55.399 -999 4.449898 32.27106 -1.219471
2005-11-28 07:46:22 51°14.28 2°55.23 -999 4.449691 32.271162 -1.253181
2005-11-28 07:47:22 51°14.398 2°55.013 -999 4.449483 32.270075 -1.219471
2005-11-28 07:48:22 51°14.55 2°54.841 -999 4.44938 32.271614 -1.253181
2005-11-28 07:49:22 51°14.73 2°54.721 -999 4.449068 32.27028 -1.253181
2005-11-28 07:50:22 51°14.917 2°54.595 -999 4.448861 32.270382 -1.253181
2005-11-28 07:51:22 51°15.105 2°54.465 -999 4.448654 32.270484 -1.219471
2005-11-28 07:52:22 51°15.277 2°54.293 -999 4.448342 32.269745 -1.219471
2005-11-28 07:53:22 51°15.445 2°54.113 -999 4.448135 32.270443 -1.253181
2005-11-28 07:54:22 51°15.614 2°53.936 -999 4.447927 32.270546 -1.253181
2005-11-28 07:55:22 51°15.783 2°53.763 -999 4.447512 32.26837 -1.253181
2005-11-28 07:56:22 51°15.953 2°53.587 -999 4.447305 32.269663 -1.253181
2005-11-28 07:57:22 51°16.122 2°53.414 -999 4.446994 32.26952 -1.253181
2005-11-28 07:58:22 51°16.3 2°53.266 -999 4.446786 32.270813 -1.219471
2005-11-28 07:59:22 51°16.478 2°53.118 -999 4.446475 32.268883 -1.253181
2005-11-28 08:00:22 51°16.66 2°52.977 -999 4.446164 32.269931 -1.219471
2005-11-28 08:01:22 51°16.839 2°52.835 -999 4.445956 32.270629 -1.253181
2005-11-28 08:02:22 51°17.016 2°52.699 -999 4.445541 32.269048 -1.253181
2005-11-28 08:03:22 51°17.193 2°52.553 -999 4.44523 32.268905 -1.219471
2005-11-28 08:04:22 51°17.363 2°52.384 -999 4.445023 32.270795 -1.253181
2005-11-28 08:05:22 51°17.506 2°52.167 -999 4.444608 32.269214 -1.219471
2005-11-28 08:06:22 51°17.606 2°51.897 -999 4.444193 32.268825 -1.253181
2005-11-28 08:07:22 51°17.698 2°51.623 -999 4.443985 32.269524 -1.219471
2005-11-28 08:08:22 51°17.784 2°51.342 -999 4.443466 32.267696 -1.253181
2005-11-28 08:09:22 51°17.872 2°51.061 -999 4.443155 32.268745 -1.253181
2005-11-28 08:10:22 51°17.957 2°50.781 -999 4.442844 32.268602 -1.253181
2005-11-28 08:11:22 51°18.044 2°50.501 -999 4.442429 32.267616 -1.253181
2005-11-28 08:12:22 51°18.131 2°50.219 -999 4.442014 32.266631 -1.219471
2005-11-28 08:13:22 51°18.219 2°49.937 -999 4.441599 32.266838 -1.219471
2005-11-28 08:14:22 51°18.302 2°49.646 -999 4.441391 32.267538 -1.219471
2005-11-28 08:15:22 51°18.38 2°49.364 -999 4.440976 32.266552 -1.253181
2005-11-28 08:16:22 51°18.459 2°49.083 -999 4.440458 32.265916 -1.253181
2005-11-28 08:17:22 51°18.538 2°48.803 -999 4.440043 32.265527 -1.253181
2005-11-28 08:18:22 51°18.616 2°48.527 -999 4.439732 32.264788 -1.253181
2005-11-28 08:19:22 51°18.697 2°48.246 -999 4.439524 32.266085 -1.253181
2005-11-28 08:20:22 51°18.777 2°47.96 -999 4.439109 32.264503 -1.253181
2005-11-28 08:21:22 51°18.856 2°47.676 -999 4.438694 32.26471 -1.219471
2005-11-28 08:22:22 51°18.935 2°47.388 -999 4.438383 32.265164 -1.253181
2005-11-28 08:23:22 51°19.011 2°47.094 -999 4.437864 32.262739 -1.253181
2005-11-28 08:24:22 51°19.094 2°46.802 -999 4.437553 32.26379 -1.253181
2005-11-28 08:25:22 51°19.176 2°46.509 -999 4.437242 32.263647 -1.253181
2005-11-28 08:26:22 51°19.259 2°46.223 -999 4.436827 32.263258 -1.253181
2005-11-28 08:27:22 51°19.337 2°45.934 -999 4.436619 32.263959 -1.253181
2005-11-28 08:28:22 51°19.414 2°45.645 -999 4.436204 32.262974 -1.219471
2005-11-28 08:29:22 51°19.488 2°45.361 -999 4.435789 32.261988 -1.219471
2005-11-28 08:30:22 51°19.563 2°45.076 -999 4.435374 32.261599 -1.253181
2005-11-28 08:31:22 51°19.64 2°44.788 -999 4.435063 32.262054 -1.253181
2005-11-28 08:32:22 51°19.717 2°44.501 -999 4.434648 32.261068 -1.253181
2005-11-28 08:33:22 51°19.794 2°44.21 -999 4.434233 32.260679 -1.253181
2005-11-28 08:34:22 51°19.875 2°43.918 -999 4.434129 32.262225 -1.253181
2005-11-28 08:35:22 51°19.953 2°43.629 -999 4.433507 32.260746 -1.219471
2005-11-28 08:36:22 51°20.034 2°43.338 -999 4.4333 32.260851 -1.219471
2005-11-28 08:37:22 51°20.113 2°43.051 -999 4.432885 32.260462 -1.253181
2005-11-28 08:38:22 51°20.191 2°42.766 -999 4.432573 32.260918 -1.253181
2005-11-28 08:39:22 51°20.27 2°42.482 -999 4.432055 32.259088 -1.253181
2005-11-28 08:40:22 51°20.35 2°42.198 -999 4.431743 32.259543 -1.253181
2005-11-28 08:41:22 51°20.421 2°41.913 -999 4.431328 32.259155 -1.253181
2005-11-28 08:42:22 51°20.469 2°41.617 -999 4.431017 32.259013 -1.253181
2005-11-28 08:43:22 51°20.52 2°41.318 -999 4.430602 32.258027 -1.253181
2005-11-28 08:44:22 51°20.553 2°41.012 -999 4.430187 32.258237 -1.253181
2005-11-28 08:45:22 51°20.579 2°40.703 -999 4.42998 32.259538 -1.253181
2005-11-28 08:46:22 51°20.604 2°40.395 -999 4.429565 32.25915 -1.253181
2005-11-28 08:47:22 51°20.627 2°40.087 -999 4.429046 32.256721 -1.253181
2005-11-28 08:48:22 51°20.653 2°39.774 -999 4.428839 32.258022 -1.219471
2005-11-28 08:49:22 51°20.672 2°39.464 -999 4.428424 32.257634 -1.253181
2005-11-28 08:50:22 51°20.663 2°39.154 -999 4.428113 32.258091 -1.219471
2005-11-28 08:51:22 51°20.655 2°38.844 -999 4.427594 32.254465 -1.253181
2005-11-28 08:52:22 51°20.648 2°38.532 -999 4.427283 32.25552 -1.253181
2005-11-28 08:53:22 51°20.653 2°38.223 -999 4.426868 32.254534 -1.253181
2005-11-28 08:54:22 51°20.662 2°37.916 -999 4.42666 32.255836 -1.253181
2005-11-28 08:55:22 51°20.672 2°37.61 -999 4.426245 32.254251 -1.253181
2005-11-28 08:56:22 51°20.682 2°37.304 -999 4.425934 32.254708 -1.253181
2005-11-28 08:57:22 51°20.702 2°36.998 -999 4.425623 32.254567 -1.253181
2005-11-28 08:58:22 51°20.75 2°36.702 -999 4.425208 32.252982 -1.219471
2005-11-28 08:59:22 51°20.802 2°36.405 -999 4.425 32.254285 -1.219471
2005-11-28 09:00:22 51°20.854 2°36.108 -999 4.424585 32.253298 -1.253181
2005-11-28 09:01:22 51°20.913 2°35.813 -999 4.424378 32.254003 -1.219471
2005-11-28 09:02:22 51°20.971 2°35.514 -999 4.423963 32.253615 -1.253181
2005-11-28 09:03:22 51°21.032 2°35.217 -999 4.423652 32.253474 -1.219471
2005-11-28 09:04:22 51°21.082 2°34.922 -999 4.42334 32.253932 -1.219471
2005-11-28 09:05:22 51°21.14 2°34.629 -999 4.423029 32.253192 -1.253181
2005-11-28 09:06:22 51°21.263 2°34.388 -999 4.422614 32.252805 -1.219471
2005-11-28 09:07:22 51°21.451 2°34.258 -999 4.422407 32.254109 -1.219471
2005-11-28 09:08:22 51°21.651 2°34.16 -999 4.421992 32.253123 -1.253181
2005-11-28 09:09:22 51°21.849 2°34.054 -999 4.421784 32.254427 -1.253181
2005-11-28 09:10:22 51°22.048 2°33.945 -999 4.421369 32.252841 -1.253181
2005-11-28 09:11:22 51°22.245 2°33.836 -999 4.420954 32.253053 -1.219471
2005-11-28 09:12:22 51°22.437 2°33.717 -999 4.420747 32.254958 -1.253181
2005-11-28 09:13:22 51°22.598 2°33.529 -999 4.420332 32.252773 -1.219471
2005-11-28 09:14:22 51°22.725 2°33.291 -999 4.419917 32.252385 -1.219471
2005-11-28 09:15:22 51°22.81 2°33.011 -999 4.419398 32.252351 -1.253181
2005-11-28 09:16:22 51°22.828 2°32.711 -999 4.418983 32.251965 -1.253181
2005-11-28 09:17:22 51°22.825 2°32.41 -999 3.556876 29.130857 -1.3206
2005-11-28 09:18:22 51°22.811 2°32.109 -999 3.958659 34.450411 -1.388018
2005-11-28 09:19:22 51°22.801 2°31.806 -999 3.966744 34.543364 -1.388018
2005-11-28 09:20:22 51°22.789 2°31.508 -999 3.982602 34.698342 -1.388018
2005-11-28 09:21:22 51°22.778 2°31.208 -999 3.984572 34.707825 -1.388018
2005-11-28 09:22:22 51°22.768 2°30.907 -999 3.987577 34.724963 -1.388018
2005-11-28 09:23:22 51°22.752 2°30.609 -999 3.99276 34.768896 -1.388018
2005-11-28 09:24:22 51°22.735 2°30.31 -999 3.990376 34.737662 -1.388018
2005-11-28 09:25:22 51°22.719 2°30.008 -999 3.982187 34.647652 -1.388018
2005-11-28 09:26:22 51°22.702 2°29.709 -999 3.98851 34.692979 -1.388018
2005-11-28 09:27:22 51°22.685 2°29.409 -999 3.981358 34.60911 -1.388018
2005-11-28 09:28:22 51°22.667 2°29.109 -999 3.990686 34.696428 -1.354309
2005-11-28 09:29:22 51°22.659 2°28.806 -999 3.981772 34.605118 -1.388018
2005-11-28 09:30:22 51°22.653 2°28.503 -999 3.999601 34.783768 -1.354309
2005-11-28 09:31:22 51°22.645 2°28.202 -999 4.001674 34.804704 -1.388018
2005-11-28 09:32:22 51°22.637 2°27.901 -999 3.423021 29.257465 -1.354309
2005-11-28 09:33:22 51°22.639 2°27.598 -999 3.798035 32.835715 -1.354309
2005-11-28 09:34:22 51°22.642 2°27.296 -999 4.013387 34.916049 -1.354309
2005-11-28 09:35:22 51°22.645 2°26.995 -999 4.013387 34.920093 -1.354309
2005-11-28 09:36:22 51°22.649 2°26.694 -999 4.012765 34.918903 -1.354309
2005-11-28 09:37:22 51°22.65 2°26.396 -999 4.013491 34.919482 -1.354309
2005-11-28 09:38:22 51°22.651 2°26.094 -999 4.015253 34.919617 -1.3206
2005-11-28 09:39:22 51°22.669 2°25.799 -999 4.016911 34.914709 -1.3206
2005-11-28 09:40:22 51°22.806 2°25.586 -999 4.018466 34.920107 -1.3206
2005-11-28 09:41:22 51°23.016 2°25.537 -999 4.019917 34.932575 -1.3206
2005-11-28 09:42:22 51°23.235 2°25.536 -999 4.020539 34.944267 -1.3206
2005-11-28 09:43:22 51°23.453 2°25.544 -999 4.020436 34.947303 -1.28689
2005-11-28 09:44:22 51°23.674 2°25.557 -999 4.021783 34.949874 -1.28689
2005-11-28 09:45:22 51°23.896 2°25.57 -999 4.023752 34.952822 -1.28689
2005-11-28 09:46:22 51°24.12 2°25.583 -999 4.025618 34.954765 -1.28689
2005-11-28 09:47:22 51°24.343 2°25.599 -999 4.026447 34.953924 -1.28689
2005-11-28 09:48:22 51°24.567 2°25.615 -999 4.026447 34.953924 -1.28689
2005-11-28 09:49:22 51°24.791 2°25.618 -999 4.026343 34.952112 -1.253181
2005-11-28 09:50:22 51°25.016 2°25.623 -999 4.026862 34.9531 -1.253181
2005-11-28 09:51:22 51°25.242 2°25.626 -999 4.028209 34.954864 -1.253181
2005-11-28 09:52:22 51°25.466 2°25.629 -999 4.029868 34.95964 -1.253181
2005-11-28 09:53:21 51°25.685 2°25.629 -999 4.031526 34.961995 -1.219471
2005-11-28 09:54:21 51°25.906 2°25.635 -999 4.032666 34.964169 -1.219471
2005-11-28 09:55:22 51°26.132 2°25.639 -999 4.033288 34.964548 -1.219471
2005-11-28 09:56:21 51°26.348 2°25.649 -999 4.033288 34.963742 -1.219471
2005-11-28 09:57:23 51°26.58 2°25.651 -999 4.033392 34.96394 -1.219471
2005-11-28 09:58:23 51°26.802 2°25.655 -999 4.03391 34.964122 -1.219471
2005-11-28 09:59:21 51°27.02 2°25.656 -999 4.034221 34.963909 -1.219471
2005-11-28 10:00:23 51°27.249 2°25.66 -999 4.034014 34.962708 -1.185762
2005-11-28 10:01:21 51°27.466 2°25.664 -999 4.034014 34.963513 -1.185762
2005-11-28 10:02:23 51°27.697 2°25.669 -999 4.034843 34.9659 -1.185762
2005-11-28 10:03:21 51°27.916 2°25.675 -999 4.034947 34.965292 -1.185762
2005-11-28 10:04:21 51°28.14 2°25.677 -999 4.034739 34.966508 -1.185762
2005-11-28 10:05:23 51°28.372 2°25.681 -999 4.034428 34.967527 -1.185762
2005-11-28 10:06:21 51°28.588 2°25.685 -999 4.034325 34.96733 -1.185762
2005-11-28 10:07:21 51°28.811 2°25.685 -999 4.034428 34.967527 -1.185762
2005-11-28 10:08:21 51°29.034 2°25.686 -999 4.034947 34.966903 -1.185762
2005-11-28 10:09:21 51°29.254 2°25.685 -999 4.035983 34.964851 -1.152053
2005-11-28 10:10:21 51°29.447 2°25.556 -999 4.037227 34.965612 -1.152053
2005-11-28 10:11:23 51°29.64 2°25.387 -999 4.039093 34.966754 -1.152053
2005-11-28 10:12:23 51°29.809 2°25.19 -999 4.04158 34.969083 -1.152053
2005-11-28 10:13:21 51°29.971 2°24.993 -999 4.044483 34.972204 -1.152053
2005-11-28 10:14:23 51°30.159 2°24.834 -999 4.048007 34.975708 -1.152053
2005-11-28 10:15:21 51°30.369 2°24.926 -999 4.051635 34.968186 -1.152053
2005-11-28 10:16:21 51°30.581 2°25.074 -999 4.056714 34.994699 -1.152053
2005-11-28 10:17:21 51°30.79 2°25.242 -999 4.058165 35.00227 -1.152053
2005-11-28 10:18:21 51°30.998 2°25.412 -999 4.058062 35.00047 -1.152053
2005-11-28 10:19:21 51°31.206 2°25.581 -999 4.057232 34.999694 -1.152053
2005-11-28 10:20:21 51°31.411 2°25.752 -999 4.0563 34.997919 -1.152053
2005-11-28 10:21:23 51°31.623 2°25.936 -999 4.05547 34.997143 -1.152053
2005-11-28 10:22:21 51°31.821 2°26.118 -999 4.054641 34.995565 -1.152053
2005-11-28 10:23:21 51°32.023 2°26.302 -999 4.054019 34.992777 -1.152053
2005-11-28 10:24:21 51°32.227 2°26.489 -999 4.053397 34.989989 -1.152053
2005-11-28 10:25:21 51°32.434 2°26.675 -999 4.052671 34.987003 -1.152053
2005-11-28 10:26:21 51°32.636 2°26.866 -999 4.052361 34.985608 -1.152053
2005-11-28 10:27:21 51°32.84 2°27.06 -999 4.051946 34.983214 -1.152053
2005-11-28 10:28:23 51°33.045 2°27.261 -999 4.051842 34.982214 -1.152053
2005-11-28 10:29:22 51°33.241 2°27.457 -999 4.051946 34.981609 -1.152053
2005-11-28 10:30:23 51°33.446 2°27.656 -999 4.052257 34.9814 -1.118343
2005-11-28 10:31:21 51°33.643 2°27.847 -999 4.053086 34.983781 -1.118343
2005-11-28 10:32:21 51°33.845 2°28.043 -999 4.054123 34.985756 -1.118343
2005-11-28 10:33:21 51°34.045 2°28.24 -999 4.055159 34.989334 -1.152053
2005-11-28 10:34:23 51°34.25 2°28.441 -999 4.056403 34.993305 -1.118343
2005-11-28 10:35:21 51°34.441 2°28.631 -999 4.057232 34.996487 -1.118343
2005-11-28 10:36:23 51°34.652 2°28.834 -999 4.058787 35.000247 -1.118343
2005-11-28 10:37:23 51°34.853 2°29.028 -999 4.05972 35.002823 -1.118343
2005-11-28 10:38:21 51°35.052 2°29.219 -999 4.060239 35.003809 -1.118343
2005-11-28 10:39:21 51°35.251 2°29.415 -999 4.061379 35.008381 -1.118343
2005-11-28 10:40:21 51°35.45 2°29.613 -999 4.062623 35.011547 -1.118343
2005-11-28 10:41:23 51°35.661 2°29.814 -999 4.063659 35.013517 -1.118343
2005-11-28 10:42:21 51°35.854 2°30.003 -999 4.064385 35.015697 -1.118343
2005-11-28 10:43:21 51°36.052 2°30.198 -999 4.064696 35.016288 -1.118343
2005-11-28 10:44:21 51°36.252 2°30.396 -999 4.064592 35.016091 -1.118343
2005-11-28 10:45:23 51°36.46 2°30.594 -999 4.064281 35.014699 -1.118343
2005-11-28 10:46:23 51°36.662 2°30.788 -999 4.064489 35.015093 -1.118343
2005-11-28 10:47:22 51°36.857 2°30.979 -999 4.064178 35.013701 -1.118343
2005-11-28 10:48:23 51°37.063 2°31.174 -999 4.063867 35.01311 -1.118343
2005-11-28 10:49:21 51°37.257 2°31.365 -999 4.063763 35.013714 -1.118343
2005-11-28 10:50:21 51°37.457 2°31.56 -999 4.063141 35.01093 -1.118343
2005-11-28 10:51:21 51°37.658 2°31.756 -999 4.063141 35.01093 -1.118343
2005-11-28 10:52:21 51°37.86 2°31.95 -999 4.063348 35.012926 -1.118343
2005-11-28 10:53:23 51°38.071 2°32.153 -999 4.063141 35.011731 -1.084634
2005-11-28 10:54:21 51°38.266 2°32.342 -999 4.063452 35.012322 -1.118343
2005-11-28 10:55:23 51°38.47 2°32.542 -999 4.063348 35.012926 -1.118343
2005-11-28 10:56:21 51°38.666 2°32.729 -999 4.063348 35.012125 -1.118343
2005-11-28 10:57:23 51°38.875 2°32.932 -999 4.063452 35.012322 -1.084634
2005-11-28 10:58:23 51°39.075 2°33.132 -999 4.063141 35.013333 -1.118343
2005-11-28 10:59:23 51°39.281 2°33.327 -999 4.063037 35.012335 -1.084634
2005-11-28 11:00:21 51°39.475 2°33.519 -999 4.063141 35.013333 -1.084634
2005-11-28 11:01:23 51°39.686 2°33.723 -999 4.062934 35.011337 -1.084634
2005-11-28 11:02:23 51°39.89 2°33.918 -999 4.062934 35.012138 -1.084634
2005-11-28 11:03:21 51°40.088 2°34.107 -999 4.062623 35.008343 -1.084634
2005-11-28 11:04:23 51°40.298 2°34.313 -999 4.062208 35.005953 -1.084634
2005-11-28 11:05:23 51°40.502 2°34.509 -999 4.061897 35.002158 -1.084634
2005-11-28 11:06:23 51°40.707 2°34.708 -999 4.061379 34.99957 -1.084634
2005-11-28 11:07:21 51°40.904 2°34.898 -999 4.060964 34.994778 -1.084634
2005-11-28 11:08:23 51°41.113 2°35.104 -999 4.060342 34.992793 -1.084634
2005-11-28 11:09:23 51°41.313 2°35.313 -999 4.059616 34.988209 -1.084634
2005-11-28 11:10:23 51°41.427 2°35.637 -999 4.059409 34.98301 -1.084634
2005-11-28 11:11:23 51°41.386 2°35.989 -999 4.058165 34.975036 -1.084634
2005-11-28 11:12:21 51°41.297 2°36.305 -999 4.05775 34.974245 -1.084634
2005-11-28 11:13:21 51°41.199 2°36.631 -999 4.058165 34.983041 -1.084634
2005-11-28 11:14:21 51°41.101 2°36.953 -999 4.058372 34.984237 -1.084634
2005-11-28 11:15:21 51°41.004 2°37.272 -999 4.058373 34.98664 -1.084634
2005-11-28 11:16:21 51°40.906 2°37.586 -999 4.05858 34.989437 -1.084634
2005-11-28 11:17:23 51°40.803 2°37.911 -999 4.057958 34.989054 -1.084634
2005-11-28 11:18:23 51°40.704 2°38.225 -999 4.056714 34.985082 -1.084634
2005-11-28 11:19:21 51°40.611 2°38.529 -999 4.05547 34.983513 -1.084634
2005-11-28 11:20:23 51°40.507 2°38.854 -999 4.053501 34.974951 -1.084634
2005-11-28 11:21:21 51°40.413 2°39.152 -999 4.050287 34.964011 -1.084634
2005-11-28 11:22:23 51°40.308 2°39.469 -999 4.048939 34.954223 -1.084634
2005-11-28 11:23:23 51°40.202 2°39.773 -999 4.048525 34.955836 -1.084634
2005-11-28 11:24:23 51°40.088 2°40.068 -999 4.048629 34.956034 -1.084634
2005-11-28 11:25:23 51°39.973 2°40.364 -999 4.048629 34.958439 -1.084634
2005-11-28 11:26:23 51°39.86 2°40.667 -999 4.048421 34.959648 -1.084634
2005-11-28 11:27:23 51°39.743 2°40.959 -999 4.048214 34.960054 -1.084634
2005-11-28 11:28:23 51°39.618 2°41.237 -999 4.048007 34.958054 -1.084634
2005-11-28 11:29:23 51°39.487 2°41.513 -999 4.047177 34.957273 -1.084634
2005-11-28 11:30:23 51°39.343 2°41.763 -999 4.046555 34.953678 -1.084634
2005-11-28 11:31:21 51°39.189 2°41.976 -999 4.046141 34.952084 -1.084634
2005-11-28 11:32:21 51°39.019 2°42.171 -999 4.04583 34.953095 -1.084634
2005-11-28 11:33:23 51°38.821 2°42.26 -999 4.044793 34.943894 -1.084634
2005-11-28 11:34:23 51°38.627 2°42.336 -999 4.04469 34.948509 -1.084634
2005-11-28 11:35:23 51°38.433 2°42.412 -999 4.04469 34.950114 -1.084634
2005-11-28 11:36:23 51°38.239 2°42.486 -999 4.044482 34.948113 -1.084634
2005-11-28 11:37:23 51°38.045 2°42.554 -999 4.043549 34.943121 -1.084634
2005-11-28 11:38:23 51°37.851 2°42.624 -999 4.042616 34.939732 -1.084634
2005-11-28 11:39:21 51°37.666 2°42.706 -999 4.041062 34.936759 -1.084634
2005-11-28 11:40:23 51°37.467 2°42.76 -999 4.037123 34.929223 -1.084634
2005-11-28 11:41:21 51°37.285 2°42.72 -999 4.03194 34.918498 -1.084634
2005-11-28 11:42:23 51°37.202 2°42.458 -999 4.027276 34.907954 -1.050924
2005-11-28 11:43:23 51°37.227 2°42.145 -999 4.024685 34.908624 -1.050924
2005-11-28 11:44:23 51°37.256 2°41.831 -999 4.026861 34.910379 -1.050924
2005-11-28 11:45:23 51°37.284 2°41.52 -999 4.032355 34.922509 -1.050924
2005-11-28 11:46:21 51°37.315 2°41.224 -999 4.036812 34.933449 -1.084634
2005-11-28 11:47:23 51°37.349 2°40.909 -999 4.038781 34.934003 -1.050924
2005-11-28 11:48:21 51°37.375 2°40.611 -999 4.040129 34.937383 -1.050924
2005-11-28 11:49:23 51°37.404 2°40.287 -999 4.041373 34.939762 -1.084634
2005-11-28 11:50:23 51°37.431 2°39.975 -999 4.042616 34.94214 -1.050924
2005-11-28 11:51:23 51°37.449 2°39.659 -999 4.044171 34.948322 -1.050924
2005-11-28 11:52:23 51°37.458 2°39.344 -999 4.045623 34.955909 -1.050924
2005-11-28 11:53:21 51°37.461 2°39.04 -999 4.046452 34.964715 -1.050924
2005-11-28 11:54:23 51°37.467 2°38.715 -999 4.047074 34.964296 -1.050924
2005-11-28 11:55:21 51°37.475 2°38.411 -999 4.047696 34.970299 -1.050924
2005-11-28 11:56:23 51°37.482 2°38.085 -999 4.048629 34.972078 -1.050924
2005-11-28 11:57:23 51°37.49 2°37.766 -999 4.049043 34.972868 -1.050924
2005-11-28 11:58:23 51°37.497 2°37.451 -999 4.049562 34.974659 -1.050924
2005-11-28 11:59:23 51°37.501 2°37.137 -999 4.050287 34.976042 -1.050924
2005-11-28 12:00:23 51°37.508 2°36.818 -999 4.050909 34.977227 -1.050924
2005-11-28 12:01:23 51°37.514 2°36.5 -999 4.051531 34.978413 -1.050924
2005-11-28 12:02:23 51°37.519 2°36.183 -999 4.052464 34.977785 -1.050924
2005-11-28 12:03:23 51°37.522 2°35.866 -999 4.053604 34.982363 -1.050924
2005-11-28 12:04:23 51°37.525 2°35.55 -999 4.054019 34.984757 -1.050924
2005-11-28 12:05:23 51°37.528 2°35.233 -999 4.054641 34.98514 -1.050924
2005-11-28 12:06:23 51°37.533 2°34.916 -999 4.055159 34.986929 -1.050924
2005-11-28 12:07:23 51°37.539 2°34.602 -999 4.054848 34.987138 -1.050924
2005-11-28 12:08:23 51°37.493 2°34.331 -999 4.054537 34.986546 -1.050924
2005-11-28 12:09:23 51°37.361 2°34.125 -999 4.054019 34.983955 -1.050924
2005-11-28 12:10:23 51°37.225 2°33.92 -999 4.053604 34.981561 -1.050924
2005-11-28 12:11:21 51°37.063 2°33.803 -999 4.052568 34.980388 -1.050924
2005-11-28 12:12:23 51°36.882 2°33.688 -999 4.05236 34.977587 -1.050924
2005-11-28 12:13:21 51°36.714 2°33.576 -999 4.051427 34.974205 -1.050924
2005-11-28 12:14:23 51°36.532 2°33.457 -999 4.050598 34.973426 -1.050924
2005-11-28 12:15:23 51°36.358 2°33.343 -999 4.050287 34.973635 -1.050924
2005-11-28 12:16:23 51°36.183 2°33.227 -999 4.049976 34.976251 -1.050924
2005-11-28 12:17:20 51°13.206 2°52.909 -999 4.463178 32.284752 -1.253181
2005-11-28 12:17:50 51°13.206 2°52.909 -999 4.463074 32.285099 -1.253181
2005-11-28 12:18:43 51°35.773 2°32.955 -999 4.050495 34.979647 -1.050924
2005-11-28 12:19:43 51°35.592 2°32.87 -999 4.05122 34.981029 -1.050924
2005-11-28 12:20:43 51°35.41 2°32.791 -999 4.051739 34.984424 -1.050924
2005-11-28 12:21:43 51°35.227 2°32.704 -999 4.05236 34.984806 -1.050924
2005-11-28 12:22:43 51°35.045 2°32.629 -999 4.052257 34.985411 -1.050924
2005-11-28 12:23:43 51°34.862 2°32.542 -999 4.052464 34.985003 -1.050924
2005-11-28 12:24:43 51°34.677 2°32.454 -999 4.05205 34.987423 -1.050924
2005-11-28 12:25:41 51°34.498 2°32.368 -999 4.051324 34.983634 -1.050924
2005-11-28 12:26:43 51°34.305 2°32.278 -999 4.049873 34.985686 -1.050924
2005-11-28 12:27:41 51°34.12 2°32.21 -999 4.048525 34.981514 -1.050924
2005-11-28 12:28:43 51°33.92 2°32.145 -999 4.047903 34.981132 -1.050924
2005-11-28 12:29:41 51°33.731 2°32.094 -999 4.047903 34.97792 -1.017215
2005-11-28 12:30:43 51°33.527 2°32.052 -999 4.047489 34.975524 -1.017215
2005-11-28 12:31:41 51°33.339 2°32.009 -999 4.046867 34.974338 -1.050924
2005-11-28 12:32:43 51°33.136 2°31.961 -999 4.045934 34.974167 -1.017215
2005-11-28 12:33:43 51°32.939 2°31.912 -999 4.044794 34.973601 -1.017215
2005-11-28 12:34:43 51°32.746 2°31.864 -999 4.044068 34.973021 -1.017215
2005-11-28 12:35:43 51°32.551 2°31.816 -999 4.04272 34.968041 -1.050924
2005-11-28 12:36:43 51°32.356 2°31.78 -999 4.041477 34.967277 -1.017215
2005-11-28 12:37:43 51°32.16 2°31.781 -999 4.039715 34.964722 -1.017215
2005-11-28 12:38:43 51°31.962 2°31.813 -999 4.037849 34.961163 -1.017215
2005-11-28 12:39:43 51°31.764 2°31.85 -999 4.03505 34.95824 -1.017215
2005-11-28 12:40:41 51°31.573 2°31.912 -999 4.033703 34.955669 -1.017215
2005-11-28 12:41:43 51°31.371 2°31.977 -999 4.033703 34.955669 -1.017215
2005-11-28 12:42:43 51°31.177 2°32.043 -999 4.033184 34.951458 -1.017215
2005-11-28 12:43:43 51°30.996 2°32.176 -999 4.032355 34.94907 -1.017215
2005-11-28 12:44:43 51°30.823 2°32.35 -999 4.032148 34.951897 -1.017215
2005-11-28 12:45:43 51°30.646 2°32.513 -999 4.031941 34.949084 -1.017215
2005-11-28 12:46:43 51°30.468 2°32.675 -999 4.031215 34.947699 -1.017215
2005-11-28 12:47:41 51°30.294 2°32.834 -999 4.030593 34.947317 -1.017215
2005-11-28 12:48:43 51°30.108 2°32.994 -999 4.029246 34.947969 -1.017215
2005-11-28 12:49:41 51°29.933 2°33.149 -999 4.028105 34.946599 -1.017215
2005-11-28 12:50:43 51°29.747 2°33.323 -999 4.027173 34.944011 -1.017215
2005-11-28 12:51:43 51°29.654 2°33.628 -999 4.025618 34.948306 -1.017215
2005-11-28 12:52:43 51°29.62 2°33.981 -999 4.025307 34.947712 -1.017215
2005-11-28 12:53:43 51°29.589 2°34.333 -999 4.024996 34.947926 -1.017215
2005-11-28 12:54:43 51°29.558 2°34.682 -999 4.025203 34.952359 -1.017215
2005-11-28 12:55:43 51°29.53 2°35.032 -999 4.025411 34.955177 -1.017215
2005-11-28 12:56:43 51°29.509 2°35.387 -999 4.02313 34.953252 -1.017215
2005-11-28 12:57:43 51°29.498 2°35.743 -999 4.020436 34.951346 -1.017215
2005-11-28 12:58:43 51°29.5 2°36.1 -999 4.019192 34.947356 -1.017215
2005-11-28 12:59:43 51°29.502 2°36.456 -999 4.019088 34.945541 -1.017215
2005-11-28 13:00:43 51°29.501 2°36.814 -999 4.018673 34.943941 -1.017215
2005-11-28 13:01:43 51°29.498 2°37.171 -999 4.017637 34.939536 -1.017215
2005-11-28 13:02:43 51°29.423 2°37.473 -999 4.017015 34.931879 -1.017215
2005-11-28 13:03:43 51°29.239 2°37.62 -999 4.014942 34.917406 -1.017215
2005-11-28 13:04:43 51°29.051 2°37.756 -999 4.015978 34.92909 -1.017215
2005-11-28 13:05:43 51°28.857 2°37.882 -999 4.016911 34.93249 -1.017215
2005-11-28 13:06:43 51°28.669 2°38.02 -999 4.017119 34.933694 -1.017215
2005-11-28 13:07:43 51°28.478 2°38.151 -999 4.017533 34.932061 -1.017215
2005-11-28 13:08:43 51°28.29 2°38.284 -999 4.017637 34.928217 -1.017215
2005-11-28 13:09:43 51°28.102 2°38.415 -999 4.015875 34.924849 -1.017215
2005-11-28 13:10:43 51°27.914 2°38.543 -999 4.013802 34.920077 -1.017215
2005-11-28 13:11:43 51°27.72 2°38.649 -999 4.012143 34.916905 -1.017215
2005-11-28 13:12:43 51°27.527 2°38.758 -999 4.010589 34.915549 -1.017215
2005-11-28 13:13:43 51°27.333 2°38.868 -999 4.006961 34.905369 -1.017215
2005-11-28 13:14:43 51°27.14 2°38.974 -999 4.001571 34.885322 -1.017215
2005-11-28 13:15:43 51°26.947 2°39.08 -999 3.997736 34.868239 -1.017215
2005-11-28 13:16:43 51°26.757 2°39.19 -999 3.995249 34.852925 -1.017215
2005-11-28 13:17:43 51°26.566 2°39.3 -999 3.993694 34.834543 -1.017215
2005-11-28 13:18:43 51°26.374 2°39.411 -999 3.992657 34.821212 -1.017215
2005-11-28 13:19:43 51°26.179 2°39.515 -999 3.992865 34.825659 -1.017215
2005-11-28 13:20:43 51°25.983 2°39.61 -999 3.992761 34.828697 -0.983506
2005-11-28 13:21:43 51°25.784 2°39.696 -999 3.991517 34.828729 -1.017215
2005-11-28 13:22:43 51°25.585 2°39.78 -999 3.988719 34.819283 -1.017215
2005-11-28 13:23:43 51°25.383 2°39.865 -999 3.979391 34.789106 -1.017215
2005-11-28 13:24:43 51°25.183 2°39.949 -999 3.966229 34.757124 -0.983506
2005-11-28 13:25:43 51°24.984 2°40.026 -999 3.953481 34.718542 -0.983506
2005-11-28 13:26:43 51°24.786 2°40.112 -999 3.950787 34.712486 -0.983506
2005-11-28 13:27:43 51°24.586 2°40.194 -999 3.951823 34.725908 -0.983506
2005-11-28 13:28:43 51°24.389 2°40.278 -999 3.951616 34.721431 -0.983506
2005-11-28 13:29:43 51°24.191 2°40.358 -999 3.947885 34.709284 -0.983506
2005-11-28 13:30:43 51°23.988 2°40.428 -999 3.943947 34.694277 -0.983506
2005-11-28 13:31:43 51°23.784 2°40.484 -999 3.938765 34.676832 -0.983506
2005-11-28 13:32:43 51°23.58 2°40.538 -999 3.933894 34.660792 -0.983506
2005-11-28 13:33:43 51°23.377 2°40.587 -999 3.928402 34.634534 -0.983506
2005-11-28 13:34:43 51°23.172 2°40.578 -999 3.919904 34.60153 -0.983506
2005-11-28 13:35:43 51°22.967 2°40.572 -999 3.905085 34.545372 -0.983506
2005-11-28 13:36:43 51°22.759 2°40.561 -999 3.875035 34.435801 -0.983506
2005-11-28 13:37:43 51°22.553 2°40.553 -999 3.855348 34.372647 -0.983506
2005-11-28 13:38:43 51°22.347 2°40.544 -999 3.840946 34.338817 -0.983506
2005-11-28 13:39:43 51°22.14 2°40.533 -999 3.840117 34.345402 -0.983506
2005-11-28 13:40:43 51°21.932 2°40.532 -999 3.839185 34.344356 -0.983506
2005-11-28 13:41:43 51°21.728 2°40.569 -999 3.843329 34.365873 -0.983506
2005-11-28 13:42:43 51°21.524 2°40.628 -999 3.842189 34.359462 -0.983506
2005-11-28 13:43:43 51°21.321 2°40.688 -999 3.843951 34.361342 -0.983506
2005-11-28 13:44:43 51°21.117 2°40.745 -999 3.836076 34.322431 -0.983506
2005-11-28 13:45:43 51°20.936 2°40.884 -999 3.827788 34.298312 -0.983506
2005-11-28 13:46:43 51°20.791 2°41.133 -999 3.827166 34.305323 -0.983506
2005-11-28 13:47:43 51°20.679 2°41.424 -999 3.831103 34.330605 -0.983506
2005-11-28 13:48:43 51°20.566 2°41.707 -999 3.838874 34.369341 -0.983506
2005-11-28 13:49:43 51°20.451 2°41.991 -999 3.842501 34.394786 -0.983506
2005-11-28 13:50:43 51°20.341 2°42.281 -999 3.836699 34.37988 -0.983506
2005-11-28 13:51:43 51°20.231 2°42.572 -999 3.825094 34.325978 -0.983506
2005-11-28 13:52:43 51°20.124 2°42.866 -999 3.818567 34.292962 -0.983506
2005-11-28 13:53:43 51°20.019 2°43.164 -999 3.816598 34.279053 -0.983506
2005-11-28 13:54:43 51°19.916 2°43.464 -999 3.810278 34.245576 -0.983506
2005-11-28 13:55:43 51°19.811 2°43.76 -999 3.806445 34.232013 -0.983506
2005-11-28 13:56:43 51°19.707 2°44.054 -999 3.800436 34.194135 -0.983506
2005-11-28 13:57:43 51°19.604 2°44.359 -999 3.791837 34.159223 -0.983506
2005-11-28 13:58:43 51°19.5 2°44.661 -999 3.782928 34.142693 -0.949796
2005-11-28 13:59:43 51°19.391 2°44.952 -999 3.778473 34.151051 -0.983506
2005-11-28 14:00:43 51°19.289 2°45.239 -999 3.761898 34.093826 -0.949796
2005-11-28 14:01:43 51°19.184 2°45.525 -999 3.756097 34.054409 -0.983506
2005-11-28 14:02:43 51°19.076 2°45.813 -999 3.755164 34.039996 -0.983506
2005-11-28 14:03:43 51°18.969 2°46.103 -999 3.750192 34.011419 -0.949796
2005-11-28 14:04:43 51°18.865 2°46.398 -999 3.740247 33.970844 -0.983506
2005-11-28 14:05:43 51°18.759 2°46.694 -999 3.72792 33.91688 -0.949796
2005-11-28 14:06:43 51°18.654 2°46.986 -999 3.714351 33.872691 -0.949796
2005-11-28 14:07:43 51°18.548 2°47.28 -999 3.7071 33.878434 -0.949796
2005-11-28 14:08:43 51°18.44 2°47.563 -999 3.704305 33.93219 -0.949796
2005-11-28 14:09:43 51°18.334 2°47.853 -999 3.699333 33.947968 -0.949796
2005-11-28 14:10:43 51°18.231 2°48.142 -999 3.698091 33.965645 -0.949796
2005-11-28 14:11:43 51°18.124 2°48.428 -999 3.698505 33.992706 -0.949796
2005-11-28 14:12:43 51°18.019 2°48.712 -999 3.701406 34.023233 -0.949796
2005-11-28 14:13:43 51°17.917 2°48.997 -999 3.705549 34.046156 -0.949796
2005-11-28 14:14:43 51°17.831 2°49.301 -999 3.708346 34.083247 -0.949796
2005-11-28 14:15:43 51°17.752 2°49.606 -999 3.709278 34.099575 -0.949796
2005-11-28 14:16:43 51°17.666 2°49.909 -999 3.709175 34.09597 -0.949796
2005-11-28 14:17:43 51°17.586 2°50.22 -999 3.708761 34.11125 -0.949796
2005-11-28 14:18:43 51°17.502 2°50.526 -999 3.7099 34.134819 -0.949796
2005-11-28 14:19:43 51°17.418 2°50.824 -999 3.709279 34.161637 -0.949796
2005-11-28 14:20:43 51°17.334 2°51.124 -999 3.707311 34.173836 -0.949796
2005-11-28 14:21:43 51°17.202 2°51.38 -999 3.698921 34.132885 -0.949796
2005-11-28 14:22:43 51°17.047 2°51.6 -999 3.694053 34.114423 -0.949796
2005-11-28 14:23:43 51°16.89 2°51.816 -999 3.685353 34.093232 -0.916087
2005-11-28 14:24:43 51°16.73 2°52.034 -999 3.679864 34.112848 -0.916087
2005-11-28 14:25:43 51°16.573 2°52.249 -999 3.684939 34.174684 -0.949796
2005-11-28 14:26:43 51°16.416 2°52.464 -999 3.689912 34.22947 -0.949796
2005-11-28 14:27:43 51°16.242 2°52.646 -999 3.697059 34.31366 -0.949796
2005-11-28 14:28:43 51°16.063 2°52.817 -999 3.690016 34.303893 -0.949796
2005-11-28 14:29:43 51°15.884 2°52.989 -999 3.670233 34.242544 -0.916087
2005-11-28 14:30:42 51°15.722 2°53.147 -999 3.664744 34.24105 -0.949796
2005-11-28 14:31:43 51°15.571 2°53.292 -999 3.64983 34.171831 -0.916087
2005-11-28 14:32:43 51°15.394 2°53.462 -999 3.641959 34.13151 -0.916087
2005-11-28 14:33:43 51°15.219 2°53.644 -999 3.648795 34.181044 -0.949796
2005-11-28 14:34:42 51°15.056 2°53.841 -999 3.633363 34.104441 -0.949796
2005-11-28 14:35:43 51°14.899 2°54.067 -999 3.571641 33.690301 -0.949796
2005-11-28 14:36:43 51°14.749 2°54.3 -999 3.493567 33.064141 -0.916087
2005-11-28 14:37:43 51°14.601 2°54.538 -999 3.392421 32.170421 -0.916087
2005-11-28 14:38:43 51°14.478 2°54.791 -999 3.322759 31.490246 -0.882377
2005-11-28 14:39:42 51°14.378 2°55.036 -999 3.295954 31.247077 -0.882377
2005-11-28 14:40:42 51°14.271 2°55.257 -999 2.952064 27.834138 -0.444155
2005-11-28 14:41:43 51°14.168 2°55.381 -999 0.052943 0.382522 -0.309317
2005-11-28 14:42:43 51°14.07 2°55.458 -999 0.043271 0.309902 -0.343027
2005-11-28 14:43:43 51°13.97 2°55.534 -999 0.038846 0.276763 -0.343027
2005-11-28 14:44:43 51°13.856 2°55.62 -999 0.036068 0.256007 -0.343027
2005-11-28 14:45:42 51°13.765 2°55.694 -999 0.03401 0.240672 -0.343027
2005-11-28 14:46:43 51°13.705 2°55.781 -999 0.03257 0.229919 -0.343027
2005-11-28 14:47:43 51°13.665 2°55.868 -999 0.031232 0.219958 -0.343027
2005-11-28 14:48:42 51°13.63 2°55.935 -999 0.030203 0.212283 -0.343027
2005-11-28 14:49:43 51°13.611 2°55.984 -999 0.029277 0.205384 -0.309317
2005-11-28 14:50:42 51°13.61 2°56.029 -999 0.028454 0.19924 -0.309317
2005-11-28 14:51:43 51°13.611 2°56.07 -999 0.027733 0.193853 -0.309317
2005-11-28 14:52:43 51°13.603 2°56.095 -999 0.02691 0.187746 -0.309317